PHVOP EHLE-ZZZZ

Flight info

Callsign PHVOP
Flight time N/A
Altitude 1500
Route EHLE ZZZZ
Aircraft CI22/L-V/N

Departure

Time 2026-05-07 09:35
Airport Lelystad Airport (EHLE)

Arrival

Time N/A
Airport ZZZZ
Time Latitude Longitude Altitude Speed Heading
2026-05-07 09:25 52.45539 5.52313 -9 ft 0 kts 227°
2026-05-07 09:31 52.45533 5.52301 -9 ft 8 kts 231°
2026-05-07 09:32 52.45516 5.52201 -9 ft 13 kts 225°
2026-05-07 09:32 52.45436 5.52056 -9 ft 20 kts 227°
2026-05-07 09:32 52.45338 5.51878 -9 ft 22 kts 227°
2026-05-07 09:32 52.45231 5.51687 -9 ft 23 kts 239°
2026-05-07 09:33 52.45127 5.51479 -9 ft 25 kts 229°
2026-05-07 09:33 52.45039 5.51324 -9 ft 14 kts 227°
2026-05-07 09:33 52.45047 5.51217 -9 ft 0 kts 347°
2026-05-07 09:34 52.45127 5.51136 -8 ft 19 kts 343°
2026-05-07 09:34 52.45272 5.51370 -7 ft 61 kts 46°
2026-05-07 09:34 52.45630 5.51992 265 ft 72 kts 42°
2026-05-07 09:35 52.46043 5.52638 549 ft 89 kts 40°
2026-05-07 09:35 52.46532 5.53357 851 ft 98 kts 41°
2026-05-07 09:35 52.47022 5.54238 927 ft 109 kts 48°
2026-05-07 09:35 52.47668 5.54459 1088 ft 108 kts 324°
2026-05-07 09:36 52.48297 5.53792 1162 ft 114 kts 332°
2026-05-07 09:36 52.49130 5.53490 1128 ft 124 kts 359°
2026-05-07 09:36 52.49987 5.53619 1237 ft 124 kts
2026-05-07 09:36 52.50893 5.53696 1206 ft 131 kts
2026-05-07 09:37 52.51790 5.53716 1310 ft 129 kts 359°
2026-05-07 09:37 52.52693 5.53707 1323 ft 134 kts 358°
2026-05-07 09:37 52.53640 5.53663 1346 ft 136 kts 356°
2026-05-07 09:37 52.54567 5.53423 1357 ft 136 kts 333°
2026-05-07 09:38 52.55087 5.52204 1320 ft 137 kts 272°
2026-05-07 09:38 52.54942 5.50716 1425 ft 130 kts 255°
2026-05-07 09:38 52.54585 5.49436 1634 ft 120 kts 230°
2026-05-07 09:38 52.53998 5.48275 1487 ft 144 kts 230°
2026-05-07 09:39 52.53289 5.47034 1524 ft 153 kts 224°
2026-05-07 09:39 52.52493 5.45779 1437 ft 164 kts 222°
2026-05-07 09:39 52.51630 5.44363 666 ft 197 kts 229°
2026-05-07 09:39 52.50828 5.42757 885 ft 173 kts 232°
2026-05-07 09:40 52.50143 5.41252 1094 ft 158 kts 233°
2026-05-07 09:40 52.49466 5.39872 1294 ft 149 kts 231°
2026-05-07 09:40 52.48812 5.38551 1404 ft 152 kts 232°
2026-05-07 09:40 52.48152 5.37159 1431 ft 157 kts 231°
2026-05-07 09:41 52.47448 5.35749 1428 ft 162 kts 230°
2026-05-07 09:41 52.46710 5.34322 1428 ft 165 kts 230°
2026-05-07 09:41 52.45958 5.32880 1432 ft 168 kts 229°
2026-05-07 09:41 52.45204 5.31455 1428 ft 167 kts 229°
2026-05-07 09:42 52.44435 5.30029 1429 ft 166 kts 229°
2026-05-07 09:42 52.43661 5.28611 1430 ft 167 kts 228°
2026-05-07 09:42 52.43012 5.27037 1428 ft 167 kts 240°
2026-05-07 09:42 52.42440 5.25375 1425 ft 167 kts 241°
2026-05-07 09:43 52.41866 5.23714 1429 ft 168 kts 240°
2026-05-07 09:43 52.41288 5.22062 1426 ft 167 kts 240°
2026-05-07 09:43 52.40905 5.20973 1426 ft 166 kts 240°
2026-05-07 09:43 52.40133 5.18765 1425 ft 167 kts 240°
2026-05-07 09:44 52.39752 5.17674 1425 ft 167 kts 240°
2026-05-07 09:44 52.38961 5.15496 1428 ft 167 kts 232°
2026-05-07 09:44 52.38123 5.14165 1424 ft 168 kts 221°
2026-05-07 09:44 52.37248 5.12880 1247 ft 178 kts 222°
2026-05-07 09:45 52.36345 5.11479 1217 ft 169 kts 230°
2026-05-07 09:45 52.35641 5.09960 1151 ft 164 kts 233°
2026-05-07 09:45 52.35005 5.08481 1162 ft 156 kts 238°
2026-05-07 09:45 52.34428 5.06973 1115 ft 154 kts 236°
2026-05-07 09:46 52.33762 5.05618 1077 ft 153 kts 229°
2026-05-07 09:46 52.33065 5.04290 1007 ft 155 kts 232°
2026-05-07 09:46 52.32471 5.02818 906 ft 156 kts 237°
2026-05-07 09:46 52.31902 5.01365 938 ft 151 kts 239°
2026-05-07 09:47 52.31556 4.99817 974 ft 149 kts 261°
2026-05-07 09:47 52.31457 4.98113 988 ft 149 kts 266°
2026-05-07 09:47 52.31372 4.96473 922 ft 156 kts 264°
2026-05-07 09:47 52.31308 4.95264 738 ft 165 kts 267°
2026-05-07 09:48 52.31239 4.93450 816 ft 155 kts 265°
2026-05-07 09:48 52.31346 4.91190 876 ft 151 kts 282°
2026-05-07 09:48 52.31538 4.90112 932 ft 148 kts 288°
2026-05-07 09:48 52.31738 4.87979 997 ft 148 kts 263°
2026-05-07 09:49 52.31589 4.86835 867 ft 156 kts 256°
2026-05-07 09:49 52.31378 4.85249 842 ft 131 kts 261°
2026-05-07 09:49 52.31092 4.83474 737 ft 113 kts 239°
2026-05-07 09:49 52.30617 4.82539 679 ft 98 kts 228°
2026-05-07 09:50 52.30179 4.81784 692 ft 82 kts 225°
2026-05-07 09:50 52.29770 4.81122 711 ft 81 kts 226°
2026-05-07 09:50 52.29405 4.80422 716 ft 82 kts 236°
2026-05-07 09:50 52.29311 4.79513 638 ft 87 kts 266°
2026-05-07 09:51 52.29422 4.78564 366 ft 90 kts 304°
2026-05-07 09:51 52.29736 4.78172 201 ft 85 kts 348°
2026-05-07 09:51 52.30255 4.78650 -4 ft 85 kts 36°
2026-05-07 09:51 52.30633 4.79181 -12 ft 60 kts 41°
2026-05-07 09:52 52.30901 4.79577 -13 ft 43 kts 39°
2026-05-07 09:52 52.31126 4.79896 -13 ft 43 kts 40°
2026-05-07 09:52 52.31145 4.80079 -12 ft 18 kts 131°
2026-05-07 09:52 52.31121 4.80123 -11 ft 0 kts 130°
2026-05-07 09:53 52.31110 4.80145 -11 ft 10 kts 129°
2026-05-07 09:53 52.31044 4.80298 -10 ft 21 kts 61°
2026-05-07 09:54 52.31157 4.80469 -9 ft 23 kts 40°
2026-05-07 09:54 52.31268 4.80647 -11 ft 16 kts 12°